createdAt,value
2022-12-27T00:01:40.901Z,2.97
2022-12-27T00:04:08.995Z,2.67
2022-12-27T00:06:37.474Z,2.45
2022-12-27T00:09:07.227Z,2.28
2022-12-27T00:11:35.177Z,2.12
2022-12-27T00:14:03.718Z,2.01
2022-12-27T00:16:32.222Z,2.05
2022-12-27T00:19:00.834Z,2.04
2022-12-27T00:21:28.718Z,2.01
2022-12-27T00:23:57.764Z,1.95
2022-12-27T00:26:29.294Z,1.90
2022-12-27T00:28:57.705Z,1.92
2022-12-27T00:31:27.180Z,2.02
2022-12-27T00:33:57.155Z,1.98
2022-12-27T00:36:27.462Z,1.89
2022-12-27T00:38:57.058Z,1.76
2022-12-27T00:41:27.035Z,1.50
2022-12-27T00:43:55.059Z,1.76
2022-12-27T00:46:22.949Z,1.67
2022-12-27T00:48:50.988Z,1.64
2022-12-27T00:51:20.833Z,1.63
2022-12-27T00:53:49.154Z,1.62
2022-12-27T00:56:18.979Z,1.67
2022-12-27T00:58:48.704Z,1.65
2022-12-27T01:01:19.353Z,1.57
2022-12-27T01:03:47.896Z,1.76
2022-12-27T01:06:17.315Z,1.83
2022-12-27T01:08:45.671Z,1.89
2022-12-27T01:11:14.248Z,1.92
2022-12-27T01:13:42.681Z,1.83
2022-12-27T01:16:14.632Z,1.83
2022-12-27T01:18:42.896Z,1.90
2022-12-27T01:21:12.843Z,1.94
2022-12-27T01:23:41.293Z,2.08
2022-12-27T01:26:12.746Z,2.16
2022-12-27T01:28:40.865Z,2.15
2022-12-27T01:31:10.658Z,2.22
2022-12-27T01:33:40.175Z,2.23
2022-12-27T01:36:12.926Z,2.12
2022-12-27T01:38:43.408Z,2.15
2022-12-27T01:41:33.528Z,1.97
2022-12-27T01:44:01.772Z,2.24
2022-12-27T01:46:30.933Z,2.26
2022-12-27T01:49:03.224Z,2.31
2022-12-27T01:51:32.917Z,2.38
2022-12-27T01:54:00.842Z,2.42
2022-12-27T01:56:32.433Z,2.42
2022-12-27T01:59:04.307Z,2.51
2022-12-27T02:01:44.035Z,2.42
2022-12-27T02:04:16.801Z,2.51
2022-12-27T02:06:45.212Z,2.51
2022-12-27T02:09:19.679Z,2.50
2022-12-27T02:11:55.516Z,2.45
2022-12-27T02:14:28.407Z,2.47
2022-12-27T02:16:58.609Z,2.31
2022-12-27T02:19:50.858Z,2.27
2022-12-27T02:23:05.676Z,2.21
2022-12-27T02:25:50.555Z,2.02
2022-12-27T02:28:34.400Z,1.68
2022-12-27T02:31:09.434Z,1.56
2022-12-27T02:33:45.259Z,1.35
2022-12-27T02:36:19.955Z,1.41
2022-12-27T02:38:53.124Z,1.41
2022-12-27T02:41:39.447Z,1.18
2022-12-27T02:44:25.936Z,1.06
2022-12-27T02:47:13.043Z,0.86
2022-12-27T02:50:00.656Z,0.84
2022-12-27T02:52:58.594Z,0.65
2022-12-27T02:55:35.287Z,0.88
2022-12-27T02:58:22.041Z,0.75
2022-12-27T03:01:21.091Z,0.74
2022-12-27T03:04:03.224Z,0.85
2022-12-27T03:06:57.787Z,1.02
2022-12-27T03:10:07.784Z,0.93
2022-12-27T03:13:04.509Z,0.61
2022-12-27T03:15:57.630Z,0.88
2022-12-27T03:18:45.332Z,0.82
2022-12-27T03:21:37.615Z,0.90
2022-12-27T03:24:37.039Z,0.93
2022-12-27T03:27:10.710Z,1.02
2022-12-27T03:29:56.768Z,1.07
2022-12-27T03:32:43.283Z,1.08
2022-12-27T03:35:16.259Z,0.58
2022-12-27T03:38:13.305Z,0.86
2022-12-27T03:41:03.548Z,1.01
2022-12-27T03:43:32.477Z,1.04
2022-12-27T03:46:39.730Z,0.93
2022-12-27T03:49:16.386Z,0.97
2022-12-27T03:51:49.759Z,0.74
2022-12-27T03:54:26.466Z,0.78
2022-12-27T03:56:57.584Z,0.66
2022-12-27T03:59:25.733Z,0.64
2022-12-27T04:01:53.814Z,0.59
2022-12-27T04:04:21.802Z,0.58
2022-12-27T04:06:49.793Z,0.41
2022-12-27T04:09:36.473Z,0.57
2022-12-27T04:12:21.837Z,0.72
2022-12-27T04:15:07.377Z,0.66
2022-12-27T04:17:52.741Z,0.60
2022-12-27T04:20:38.598Z,0.73
2022-12-27T04:23:23.762Z,0.53
2022-12-27T04:26:10.577Z,0.46
2022-12-27T04:28:56.381Z,0.48
2022-12-27T04:31:42.247Z,0.64
2022-12-27T04:34:27.663Z,0.68
2022-12-27T04:36:55.509Z,0.68
2022-12-27T04:39:23.389Z,0.68
2022-12-27T04:42:10.413Z,0.48
2022-12-27T04:44:52.281Z,0.68
2022-12-27T04:47:40.456Z,0.67
2022-12-27T04:50:38.430Z,0.96
2022-12-27T04:53:28.584Z,0.88
2022-12-27T04:55:56.553Z,0.77
2022-12-27T04:58:26.047Z,0.89
2022-12-27T05:01:14.338Z,0.96
2022-12-27T05:03:43.363Z,1.13
2022-12-27T05:06:11.418Z,0.93
2022-12-27T05:08:56.970Z,0.74
2022-12-27T05:11:42.574Z,0.63
2022-12-27T05:14:14.962Z,0.74
2022-12-27T05:16:44.986Z,0.48
2022-12-27T05:19:14.640Z,1.06
2022-12-27T05:22:04.779Z,0.17
2022-12-27T05:24:50.743Z,1.13
2022-12-27T05:27:18.963Z,1.38
2022-12-27T05:29:48.677Z,1.32
2022-12-27T05:32:16.507Z,1.04
2022-12-27T05:34:44.400Z,0.90
2022-12-27T05:37:12.355Z,0.79
2022-12-27T05:39:40.336Z,0.72
2022-12-27T05:42:08.203Z,0.58
2022-12-27T05:44:36.047Z,0.63
2022-12-27T05:47:05.345Z,0.59
2022-12-27T05:49:33.227Z,0.54
2022-12-27T05:52:01.072Z,0.58
2022-12-27T05:54:28.916Z,0.55
2022-12-27T05:56:56.749Z,0.34
2022-12-27T05:59:24.610Z,0.28
2022-12-27T06:01:53.102Z,0.22
2022-12-27T06:04:22.425Z,0.32
2022-12-27T06:06:50.310Z,0.35
2022-12-27T06:09:18.196Z,0.24
2022-12-27T06:11:46.076Z,0.47
2022-12-27T06:14:14.316Z,0.58
2022-12-27T06:16:42.245Z,0.76
2022-12-27T06:19:10.133Z,0.88
2022-12-27T06:21:39.372Z,1.17
2022-12-27T06:24:07.858Z,1.37
2022-12-27T06:26:35.719Z,1.13
2022-12-27T06:29:03.537Z,1.79
2022-12-27T06:31:31.401Z,1.97
2022-12-27T06:33:59.279Z,2.05
2022-12-27T06:36:28.692Z,2.24
2022-12-27T06:38:58.415Z,2.57
2022-12-27T06:41:26.740Z,2.95
2022-12-27T06:43:56.157Z,3.30
2022-12-27T06:46:28.042Z,3.63
2022-12-27T06:48:55.936Z,3.76
2022-12-27T06:51:23.804Z,3.89
2022-12-27T06:53:51.650Z,4.07
2022-12-27T06:56:22.895Z,4.36
2022-12-27T06:58:52.339Z,4.31
2022-12-27T07:01:22.105Z,4.43
2022-12-27T07:03:51.605Z,4.38
2022-12-27T07:06:20.362Z,4.69
2022-12-27T07:08:48.705Z,4.76
2022-12-27T07:11:17.374Z,4.25
2022-12-27T07:13:50.419Z,3.97
2022-12-27T07:16:25.566Z,3.98
2022-12-27T07:18:54.021Z,4.13
2022-12-27T07:21:25.100Z,4.04
2022-12-27T07:23:52.955Z,3.62
2022-12-27T07:26:23.211Z,3.68
2022-12-27T07:28:54.690Z,3.65
2022-12-27T07:31:26.468Z,3.62
2022-12-27T07:33:54.734Z,3.53
2022-12-27T07:36:25.107Z,3.51
2022-12-27T07:38:53.234Z,3.63
2022-12-27T07:41:21.222Z,4.41
2022-12-27T07:43:49.162Z,4.95
2022-12-27T07:46:19.838Z,5.43
2022-12-27T07:48:48.279Z,5.76
2022-12-27T07:51:18.691Z,6.09
2022-12-27T07:53:49.077Z,6.11
2022-12-27T07:56:25.543Z,6.40
2022-12-27T07:58:55.331Z,6.07
2022-12-27T08:01:27.214Z,6.50
2022-12-27T08:03:55.830Z,6.48
2022-12-27T08:06:26.474Z,6.91
2022-12-27T08:08:56.887Z,7.24
2022-12-27T08:11:26.585Z,7.03
2022-12-27T08:13:54.819Z,7.00
2022-12-27T08:16:27.038Z,7.44
2022-12-27T08:18:55.174Z,7.28
2022-12-27T08:21:23.835Z,7.31
2022-12-27T08:23:51.925Z,7.36
2022-12-27T08:26:25.004Z,7.79
2022-12-27T08:28:53.478Z,7.63
2022-12-27T08:31:21.505Z,8.08
2022-12-27T08:33:58.088Z,8.16
2022-12-27T08:39:14.435Z,8.94
2022-12-27T08:41:42.360Z,8.42
2022-12-27T08:44:10.417Z,8.90
2022-12-27T08:46:38.401Z,9.12
2022-12-27T08:49:07.740Z,8.90
2022-12-27T08:51:40.826Z,9.17
2022-12-27T08:54:09.776Z,8.78
2022-12-27T08:56:38.129Z,9.58
2022-12-27T08:59:06.205Z,9.82
2022-12-27T09:01:34.539Z,9.95
2022-12-27T09:04:02.501Z,10.13
2022-12-27T09:06:31.857Z,9.90
2022-12-27T09:09:01.385Z,10.17
2022-12-27T09:11:31.149Z,10.44
2022-12-27T09:14:00.830Z,10.62
2022-12-27T09:16:30.261Z,10.98
2022-12-27T09:18:59.650Z,11.22
2022-12-27T09:21:29.897Z,11.48
2022-12-27T09:23:59.653Z,11.20
2022-12-27T09:26:29.921Z,10.64
2022-12-27T09:28:58.852Z,9.45
2022-12-27T09:31:32.707Z,10.52
2022-12-27T09:34:00.803Z,11.11
2022-12-27T09:36:30.389Z,11.25
2022-12-27T09:39:00.277Z,11.48
2022-12-27T09:44:34.725Z,11.82
2022-12-27T09:47:07.852Z,11.85
2022-12-27T09:49:41.118Z,11.86
2022-12-27T09:52:15.193Z,11.78
2022-12-27T09:54:59.372Z,11.94
2022-12-27T09:57:38.250Z,11.66
2022-12-27T10:00:14.697Z,11.86
2022-12-27T10:02:44.568Z,11.74
2022-12-27T10:05:22.102Z,11.79
2022-12-27T10:08:18.749Z,11.94
2022-12-27T10:10:56.864Z,12.30
2022-12-27T10:13:33.093Z,12.66
2022-12-27T10:16:10.587Z,12.69
2022-12-27T10:18:49.759Z,12.69
2022-12-27T10:21:21.792Z,13.05
2022-12-27T10:23:55.723Z,13.43
2022-12-27T10:26:25.277Z,13.43
2022-12-27T10:28:57.610Z,13.51
2022-12-27T10:31:27.039Z,13.44
2022-12-27T10:33:55.664Z,13.60
2022-12-27T10:36:26.568Z,13.60
2022-12-27T10:38:54.670Z,13.53
2022-12-27T10:41:33.760Z,13.45
2022-12-27T10:44:01.638Z,13.50
2022-12-27T10:46:33.279Z,13.63
2022-12-27T10:51:53.444Z,13.29
2022-12-27T10:54:25.373Z,12.72
2022-12-27T10:56:55.401Z,13.85
2022-12-27T10:59:25.037Z,13.72
2022-12-27T11:02:16.728Z,13.58
2022-12-27T11:04:58.732Z,12.91
2022-12-27T11:07:31.484Z,13.72
2022-12-27T11:10:16.792Z,13.53
2022-12-27T11:12:58.369Z,13.02
2022-12-27T11:15:27.682Z,13.09
2022-12-27T11:17:57.469Z,12.70
2022-12-27T11:20:28.870Z,12.29
2022-12-27T11:23:00.363Z,13.03
2022-12-27T11:25:29.282Z,13.07
2022-12-27T11:28:03.171Z,12.93
2022-12-27T11:30:33.592Z,12.84
2022-12-27T11:33:04.869Z,13.23
2022-12-27T11:35:37.032Z,13.41
2022-12-27T11:38:05.037Z,13.61
2022-12-27T11:40:34.796Z,13.66
2022-12-27T11:43:09.189Z,14.10
2022-12-27T11:45:42.170Z,14.22
2022-12-27T11:48:23.065Z,14.33
2022-12-27T11:51:31.188Z,14.04
2022-12-27T11:54:14.237Z,14.21
2022-12-27T11:56:46.467Z,14.00
2022-12-27T11:59:44.222Z,13.93
2022-12-27T12:02:27.525Z,13.44
2022-12-27T12:05:25.792Z,13.09
2022-12-27T12:08:14.479Z,13.24
2022-12-27T12:10:51.473Z,13.23
2022-12-27T12:13:37.332Z,13.01
2022-12-27T12:16:34.002Z,13.00
2022-12-27T12:19:14.213Z,12.93
2022-12-27T12:21:56.652Z,13.09
2022-12-27T12:24:51.999Z,13.11
2022-12-27T12:27:43.917Z,13.04
2022-12-27T12:30:47.604Z,12.90
2022-12-27T12:33:43.164Z,12.96
2022-12-27T12:36:27.468Z,13.16
2022-12-27T12:39:02.653Z,13.14
2022-12-27T12:41:52.549Z,12.91
2022-12-27T12:44:49.515Z,12.79
2022-12-27T12:47:36.756Z,12.53
2022-12-27T12:50:30.466Z,12.46
2022-12-27T12:53:19.716Z,12.62
2022-12-27T12:56:02.493Z,12.85
2022-12-27T12:58:46.260Z,12.92
2022-12-27T13:01:27.717Z,12.75
2022-12-27T13:04:11.322Z,12.98
2022-12-27T13:07:17.563Z,12.88
2022-12-27T13:09:56.688Z,12.88
2022-12-27T13:12:32.822Z,12.72
2022-12-27T13:15:24.623Z,12.79
2022-12-27T13:18:04.585Z,12.66
2022-12-27T13:20:47.231Z,12.70
2022-12-27T13:23:25.496Z,12.30
2022-12-27T13:26:04.563Z,12.43
2022-12-27T13:28:45.129Z,12.65
2022-12-27T13:31:29.351Z,12.37
2022-12-27T13:34:08.875Z,12.50
2022-12-27T13:36:51.921Z,12.62
2022-12-27T13:39:34.754Z,12.62
2022-12-27T13:42:27.527Z,12.60
2022-12-27T13:45:04.636Z,12.69
2022-12-27T13:47:49.800Z,12.78
2022-12-27T13:50:34.739Z,12.80
2022-12-27T13:53:36.599Z,12.59
2022-12-27T13:56:51.950Z,12.64
2022-12-27T13:59:42.451Z,12.62
2022-12-27T14:02:45.453Z,12.68
2022-12-27T14:05:56.978Z,12.66
2022-12-27T14:08:38.833Z,12.62
2022-12-27T14:11:29.952Z,12.58
2022-12-27T14:14:00.167Z,12.45
2022-12-27T14:16:52.130Z,12.13
2022-12-27T14:19:49.546Z,12.30
2022-12-27T14:22:53.939Z,12.21
2022-12-27T14:26:05.106Z,12.27
2022-12-27T14:29:01.194Z,12.26
2022-12-27T14:32:08.299Z,12.21
2022-12-27T14:35:14.590Z,12.10
2022-12-27T14:38:26.519Z,12.01
2022-12-27T14:41:37.054Z,11.97
2022-12-27T14:44:43.191Z,11.90
2022-12-27T14:47:48.957Z,11.72
2022-12-27T14:50:47.011Z,11.64
2022-12-27T14:53:57.004Z,11.54
2022-12-27T14:56:30.749Z,11.08
2022-12-27T14:59:15.837Z,11.46
2022-12-27T15:02:05.036Z,11.36
2022-12-27T15:04:59.637Z,11.21
2022-12-27T15:07:42.625Z,10.26
2022-12-27T15:10:21.448Z,10.99
2022-12-27T15:12:58.790Z,10.85
2022-12-27T15:15:45.043Z,10.78
2022-12-27T15:18:37.412Z,10.51
2022-12-27T15:21:21.581Z,10.57
2022-12-27T15:23:54.457Z,10.29
2022-12-27T15:26:31.556Z,10.65
2022-12-27T15:29:13.756Z,10.54
2022-12-27T15:31:56.943Z,10.45
2022-12-27T15:34:39.978Z,10.48
2022-12-27T15:37:47.202Z,10.39
2022-12-27T15:40:26.129Z,10.29
2022-12-27T15:42:59.293Z,10.27
2022-12-27T15:45:46.388Z,10.19
2022-12-27T15:48:39.547Z,10.19
2022-12-27T15:51:15.452Z,10.14
2022-12-27T15:53:59.393Z,10.07
2022-12-27T15:56:56.495Z,10.10
2022-12-27T15:59:45.410Z,10.03
2022-12-27T16:02:32.799Z,10.06
2022-12-27T16:05:14.047Z,10.01
2022-12-27T16:07:47.148Z,10.00
2022-12-27T16:10:49.611Z,9.96
2022-12-27T16:13:41.156Z,10.00
2022-12-27T16:16:56.024Z,10.01
2022-12-27T16:19:48.667Z,10.03
2022-12-27T16:22:26.251Z,9.98
2022-12-27T16:24:54.224Z,10.05
2022-12-27T16:27:30.206Z,10.01
2022-12-27T16:29:59.184Z,9.92
2022-12-27T16:32:29.290Z,9.85
2022-12-27T16:35:13.119Z,9.85
2022-12-27T16:37:45.572Z,9.88
2022-12-27T16:40:36.768Z,9.86
2022-12-27T16:43:38.356Z,9.79
2022-12-27T16:46:20.793Z,9.96
2022-12-27T16:49:25.006Z,10.03
2022-12-27T16:52:07.789Z,10.04
2022-12-27T16:54:49.774Z,10.03
2022-12-27T16:57:34.698Z,9.95
2022-12-27T17:00:22.577Z,9.93
2022-12-27T17:02:50.560Z,9.77
2022-12-27T17:05:37.010Z,9.73
2022-12-27T17:08:20.152Z,9.61
2022-12-27T17:11:24.113Z,9.63
2022-12-27T17:13:58.715Z,9.69
2022-12-27T17:16:30.331Z,9.75
2022-12-27T17:19:02.816Z,9.31
2022-12-27T17:21:33.389Z,9.78
2022-12-27T17:24:06.709Z,9.76
2022-12-27T17:26:54.481Z,9.79
2022-12-27T17:29:47.313Z,9.57
2022-12-27T17:32:27.939Z,9.72
2022-12-27T17:35:06.493Z,9.69
2022-12-27T17:37:43.623Z,9.72
2022-12-27T17:40:33.387Z,9.40
2022-12-27T17:43:31.002Z,9.71
2022-12-27T17:46:18.235Z,9.44
2022-12-27T17:48:47.591Z,9.12
2022-12-27T17:51:21.455Z,9.46
2022-12-27T17:54:08.892Z,9.25
2022-12-27T17:57:02.213Z,9.23
2022-12-27T17:59:31.820Z,9.21
2022-12-27T18:02:05.322Z,9.24
2022-12-27T18:04:41.017Z,9.23
2022-12-27T18:07:11.946Z,9.20
2022-12-27T18:09:44.743Z,9.11
2022-12-27T18:12:19.217Z,8.68
2022-12-27T18:14:52.650Z,9.28
2022-12-27T18:17:28.957Z,9.05
2022-12-27T18:19:58.739Z,9.27
2022-12-27T18:22:27.643Z,9.27
2022-12-27T18:24:55.511Z,9.26
2022-12-27T18:27:25.716Z,9.21
2022-12-27T18:29:53.559Z,9.16
2022-12-27T18:32:25.837Z,9.15
2022-12-27T18:34:58.543Z,9.09
2022-12-27T18:37:28.556Z,9.11
2022-12-27T18:40:00.195Z,9.09
2022-12-27T18:42:32.350Z,8.90
2022-12-27T18:45:05.111Z,9.01
2022-12-27T18:47:39.054Z,8.69
2022-12-27T18:50:16.713Z,8.90
2022-12-27T18:52:51.306Z,8.85
2022-12-27T18:55:26.884Z,8.72
2022-12-27T18:58:04.807Z,8.32
2022-12-27T19:00:33.006Z,8.33
2022-12-27T19:03:14.925Z,8.64
2022-12-27T19:06:01.963Z,8.47
2022-12-27T19:08:35.198Z,8.55
2022-12-27T19:11:03.352Z,8.60
2022-12-27T19:13:38.683Z,8.62
2022-12-27T19:16:07.377Z,8.27
2022-12-27T19:18:38.507Z,8.34
2022-12-27T19:21:07.853Z,8.43
2022-12-27T19:23:38.721Z,8.31
2022-12-27T19:26:22.792Z,8.21
2022-12-27T19:29:01.995Z,8.13
2022-12-27T19:31:30.674Z,8.05
2022-12-27T19:34:02.664Z,7.81
2022-12-27T19:36:33.622Z,7.77
2022-12-27T19:39:03.184Z,7.69
2022-12-27T19:41:31.834Z,7.56
2022-12-27T19:43:59.766Z,7.53
2022-12-27T19:46:33.383Z,7.20
2022-12-27T19:51:49.245Z,7.72
2022-12-27T19:54:21.070Z,7.68
2022-12-27T19:56:49.966Z,7.77
2022-12-27T19:59:19.462Z,7.80
2022-12-27T20:01:47.790Z,7.82
2022-12-27T20:04:16.359Z,7.74
2022-12-27T20:06:46.147Z,7.86
2022-12-27T20:09:16.111Z,7.78
2022-12-27T20:11:45.487Z,7.79
2022-12-27T20:14:14.702Z,7.70
2022-12-27T20:16:42.837Z,7.76
2022-12-27T20:19:12.383Z,7.79
2022-12-27T20:21:41.325Z,7.70
2022-12-27T20:24:11.085Z,7.82
2022-12-27T20:26:40.041Z,7.77
2022-12-27T20:29:09.407Z,7.75
2022-12-27T20:31:44.191Z,7.04
2022-12-27T20:34:13.966Z,7.74
2022-12-27T20:36:42.058Z,7.70
2022-12-27T20:39:12.718Z,7.48
2022-12-27T20:41:40.766Z,6.69
2022-12-27T20:44:10.091Z,7.51
2022-12-27T20:46:38.619Z,7.21
2022-12-27T20:49:07.101Z,7.29
2022-12-27T20:51:35.059Z,7.38
2022-12-27T20:54:04.313Z,6.51
2022-12-27T20:56:32.653Z,7.34
2022-12-27T20:59:01.568Z,7.34
2022-12-27T21:01:30.926Z,7.48
2022-12-27T21:03:58.858Z,7.47
2022-12-27T21:06:31.372Z,7.44
2022-12-27T21:09:06.118Z,7.44
2022-12-27T21:11:33.976Z,6.96
2022-12-27T21:14:02.890Z,7.10
2022-12-27T21:16:34.069Z,7.46
2022-12-27T21:19:05.003Z,7.44
2022-12-27T21:21:34.786Z,7.43
2022-12-27T21:24:03.005Z,7.43
2022-12-27T21:26:32.774Z,7.38
2022-12-27T21:29:01.534Z,7.25
2022-12-27T21:31:30.623Z,7.40
2022-12-27T21:34:00.572Z,7.41
2022-12-27T21:36:29.946Z,7.24
2022-12-27T21:38:58.341Z,5.78
2022-12-27T21:41:27.607Z,7.27
2022-12-27T21:43:55.846Z,7.24
2022-12-27T21:46:26.390Z,7.05
2022-12-27T21:48:56.409Z,7.18
2022-12-27T21:51:26.417Z,6.89
2022-12-27T21:53:56.191Z,6.97
2022-12-27T21:56:25.036Z,6.82
2022-12-27T21:58:56.373Z,7.14
2022-12-27T22:01:26.511Z,7.13
2022-12-27T22:03:56.012Z,7.12
2022-12-27T22:06:27.668Z,7.15
2022-12-27T22:08:57.852Z,7.20
2022-12-27T22:11:26.557Z,7.25
2022-12-27T22:13:56.350Z,7.26
2022-12-27T22:16:26.499Z,7.15
2022-12-27T22:19:02.655Z,5.82
2022-12-27T22:21:39.351Z,7.40
2022-12-27T22:24:20.372Z,7.43
2022-12-27T22:26:50.662Z,7.47
2022-12-27T22:29:19.391Z,7.48
2022-12-27T22:31:47.256Z,7.53
2022-12-27T22:34:15.215Z,7.55
2022-12-27T22:36:44.466Z,7.56
2022-12-27T22:39:12.391Z,7.60
2022-12-27T22:41:43.060Z,7.64
2022-12-27T22:44:13.435Z,7.69
2022-12-27T22:47:15.762Z,7.70
2022-12-27T22:49:29.957Z,7.69
2022-12-27T22:51:59.199Z,7.62
2022-12-27T22:55:03.936Z,7.71
2022-12-27T22:57:14.906Z,7.77
2022-12-27T22:59:43.547Z,7.68
2022-12-27T23:02:11.604Z,7.84
2022-12-27T23:04:39.630Z,7.82
2022-12-27T23:07:08.905Z,7.78
2022-12-27T23:09:42.891Z,7.80
2022-12-27T23:12:11.450Z,7.41
2022-12-27T23:14:39.575Z,7.81
2022-12-27T23:17:07.509Z,7.84
2022-12-27T23:19:38.645Z,7.74
2022-12-27T23:22:11.409Z,7.85
2022-12-27T23:24:39.724Z,7.89
2022-12-27T23:27:07.959Z,7.91
2022-12-27T23:29:41.932Z,7.87
2022-12-27T23:32:10.248Z,7.90
2022-12-27T23:34:43.972Z,7.83
2022-12-27T23:37:13.562Z,7.95
2022-12-27T23:39:41.451Z,7.98
2022-12-27T23:42:09.707Z,7.97
2022-12-27T23:44:39.556Z,7.93
2022-12-27T23:47:07.960Z,7.96
2022-12-27T23:49:37.586Z,7.93
2022-12-27T23:52:08.011Z,7.91
2022-12-27T23:54:39.803Z,7.76
2022-12-27T23:57:20.128Z,7.86
2022-12-27T23:59:54.626Z,7.62
